Aviation Digital Data Service (ADDS)

Output produced by METARs form (1734 UTC 27 May 2017)
found at http://www.aviationweather.gov/adds/metars/
 
TAF MZBZ 271500Z 2718/2818 10010KT 9999 SCT024 
     PROB30 
     TEMPO 2718/2803 5000 SHRA BKN015 0R0B30 
     TEMPO 2809/2812 5000 SHRA BKN015
       
TAF MZBZ 271500Z 2718/2818 10010KT 9999 SCT024 
     PROB30 
     TEMPO 2718/2803 5000 SHRA BKN015 0R0B30 
     TEMPO 2809/2812 5000 SHRA BKN015